createdAt,value
2023-11-21T00:00:47.886Z,100514.48
2023-11-21T00:03:20.531Z,100515.17
2023-11-21T00:05:51.609Z,100523.33
2023-11-21T00:08:22.655Z,100527.23
2023-11-21T00:10:53.981Z,100524.46
2023-11-21T00:13:25.577Z,100525.28
2023-11-21T00:15:56.911Z,100514.59
2023-11-21T00:18:28.168Z,100509.06
2023-11-21T00:21:00.411Z,100513.50
2023-11-21T00:23:31.377Z,100516.20
2023-11-21T00:26:02.484Z,100503.69
2023-11-21T00:28:33.979Z,100487.29
2023-11-21T00:31:05.558Z,100474.30
2023-11-21T00:33:36.954Z,100472.67
2023-11-21T00:36:10.671Z,100479.79
2023-11-21T00:38:42.222Z,100483.33
2023-11-21T00:41:13.472Z,100493.95
2023-11-21T00:43:45.751Z,100493.77
2023-11-21T00:46:17.144Z,100494.35
2023-11-21T00:48:48.604Z,100493.80
2023-11-21T00:51:22.096Z,100497.66
2023-11-21T00:53:52.943Z,100496.93
2023-11-21T00:56:24.560Z,100498.44
2023-11-21T00:58:55.720Z,100492.55
2023-11-21T01:01:27.153Z,100483.54
2023-11-21T01:03:58.818Z,100473.25
2023-11-21T01:06:31.069Z,100466.23
2023-11-21T01:09:02.273Z,100458.98
2023-11-21T01:11:36.617Z,100454.26
2023-11-21T01:14:10.057Z,100456.73
2023-11-21T01:16:41.304Z,100459.17
2023-11-21T01:19:13.113Z,100456.50
2023-11-21T01:21:44.629Z,100450.25
2023-11-21T01:24:15.841Z,100444.94
2023-11-21T01:26:48.028Z,100441.30
2023-11-21T01:29:19.191Z,100443.19
2023-11-21T01:31:50.442Z,100445.75
2023-11-21T01:34:22.293Z,100445.69
2023-11-21T01:36:53.918Z,100430.20
2023-11-21T01:39:25.691Z,100425.16
2023-11-21T01:41:56.960Z,100436.40
2023-11-21T01:44:28.066Z,100443.48
2023-11-21T01:46:59.750Z,100446.95
2023-11-21T01:49:30.888Z,100432.99
2023-11-21T01:52:02.447Z,100418.66
2023-11-21T01:54:33.942Z,100412.04
2023-11-21T01:57:07.528Z,100413.10
2023-11-21T01:59:40.316Z,100414.48
2023-11-21T02:02:11.973Z,100420.67
2023-11-21T02:04:43.708Z,100421.34
2023-11-21T02:07:15.247Z,100427.56
2023-11-21T02:09:46.714Z,100427.46
2023-11-21T02:12:18.041Z,100424.77
2023-11-21T02:14:50.473Z,100419.55
2023-11-21T02:17:22.188Z,100423.92
2023-11-21T02:19:53.513Z,100424.52
2023-11-21T02:22:27.517Z,100424.69
2023-11-21T02:24:58.738Z,100418.83
2023-11-21T02:27:30.183Z,100416.85
2023-11-21T02:30:02.306Z,100414.30
2023-11-21T02:32:34.022Z,100408.16
2023-11-21T02:35:09.063Z,100405.48
2023-11-21T02:37:42.129Z,100402.77
2023-11-21T02:40:19.119Z,100401.16
2023-11-21T02:42:52.420Z,100395.52
2023-11-21T02:45:25.736Z,100395.40
2023-11-21T02:47:58.541Z,100398.02
2023-11-21T02:50:31.188Z,100397.73
2023-11-21T02:53:02.708Z,100395.65
2023-11-21T02:55:35.794Z,100392.00
2023-11-21T02:58:07.504Z,100398.13
2023-11-21T03:00:38.701Z,100392.61
2023-11-21T03:03:10.640Z,100381.67
2023-11-21T03:05:42.344Z,100378.38
2023-11-21T03:08:13.455Z,100373.45
2023-11-21T03:10:44.549Z,100375.00
2023-11-21T03:13:16.035Z,100374.26
2023-11-21T03:15:48.494Z,100375.09
2023-11-21T03:18:20.030Z,100372.77
2023-11-21T03:20:51.202Z,100366.36
2023-11-21T03:23:22.475Z,100365.80
2023-11-21T03:25:53.777Z,100366.19
2023-11-21T03:28:25.069Z,100369.92
2023-11-21T03:30:57.352Z,100377.31
2023-11-21T03:33:28.815Z,100376.64
2023-11-21T03:35:59.859Z,100372.89
2023-11-21T03:38:31.192Z,100367.95
2023-11-21T03:41:02.100Z,100369.59
2023-11-21T03:43:34.067Z,100372.73
2023-11-21T03:46:05.358Z,100371.83
2023-11-21T03:48:36.693Z,100366.46
2023-11-21T03:51:09.251Z,100363.44
2023-11-21T03:53:40.240Z,100364.71
2023-11-21T03:56:13.784Z,100362.45
2023-11-21T03:58:44.984Z,100356.20
2023-11-21T04:01:21.962Z,100355.75
2023-11-21T04:03:53.451Z,100359.20
2023-11-21T04:06:24.518Z,100365.83
2023-11-21T04:08:55.379Z,100368.27
2023-11-21T04:11:26.554Z,100367.73
2023-11-21T04:13:57.705Z,100369.08
2023-11-21T04:16:28.840Z,100362.46
2023-11-21T04:19:00.238Z,100363.02
2023-11-21T04:21:31.546Z,100364.48
2023-11-21T04:24:02.448Z,100357.27
2023-11-21T04:26:33.486Z,100352.60
2023-11-21T04:29:05.716Z,100352.23
2023-11-21T04:31:36.876Z,100343.36
2023-11-21T04:34:09.313Z,100337.05
2023-11-21T04:36:41.350Z,100339.88
2023-11-21T04:39:12.797Z,100337.69
2023-11-21T04:41:44.458Z,100331.77
2023-11-21T04:44:17.596Z,100327.97
2023-11-21T04:46:49.243Z,100323.29
2023-11-21T04:49:20.930Z,100317.84
2023-11-21T04:51:52.345Z,100314.61
2023-11-21T04:54:25.569Z,100308.83
2023-11-21T04:56:58.282Z,100304.35
2023-11-21T04:59:29.295Z,100310.11
2023-11-21T05:02:03.618Z,100310.30
2023-11-21T05:04:35.094Z,100311.59
2023-11-21T05:07:06.794Z,100307.75
2023-11-21T05:09:39.000Z,100301.59
2023-11-21T05:12:11.406Z,100306.77
2023-11-21T05:14:43.209Z,100308.95
2023-11-21T05:17:14.962Z,100307.63
2023-11-21T05:19:49.677Z,100310.90
2023-11-21T05:22:21.455Z,100304.20
2023-11-21T05:24:52.369Z,100310.11
2023-11-21T05:27:23.750Z,100311.15
2023-11-21T05:29:54.827Z,100308.84
2023-11-21T05:32:26.356Z,100306.05
2023-11-21T05:34:57.982Z,100310.36
2023-11-21T05:37:29.917Z,100310.17
2023-11-21T05:40:05.988Z,100306.35
2023-11-21T05:42:39.955Z,100305.20
2023-11-21T05:45:13.393Z,100301.57
2023-11-21T05:47:47.378Z,100308.50
2023-11-21T05:50:19.717Z,100308.56
2023-11-21T05:52:51.743Z,100302.48
2023-11-21T05:55:26.945Z,100297.95
2023-11-21T05:57:58.616Z,100296.43
2023-11-21T06:00:29.883Z,100289.39
2023-11-21T06:03:01.426Z,100285.79
2023-11-21T06:05:33.355Z,100281.95
2023-11-21T06:08:05.202Z,100287.19
2023-11-21T06:10:36.432Z,100291.34
2023-11-21T06:13:09.203Z,100292.62
2023-11-21T06:15:40.831Z,100286.73
2023-11-21T06:18:15.369Z,100287.64
2023-11-21T06:20:47.525Z,100291.88
2023-11-21T06:23:18.711Z,100298.54
2023-11-21T06:25:50.212Z,100300.09
2023-11-21T06:28:21.948Z,100296.36
2023-11-21T06:30:54.305Z,100297.34
2023-11-21T06:33:28.837Z,100300.76
2023-11-21T06:36:00.314Z,100304.01
2023-11-21T06:38:33.134Z,100304.52
2023-11-21T06:41:05.901Z,100304.88
2023-11-21T06:43:37.524Z,100314.11
2023-11-21T06:46:09.703Z,100309.83
2023-11-21T06:48:40.980Z,100320.42
2023-11-21T06:51:12.588Z,100312.48
2023-11-21T06:53:44.022Z,100314.29
2023-11-21T06:56:21.117Z,100320.70
2023-11-21T06:58:55.242Z,100321.14
2023-11-21T07:01:26.758Z,100328.90
2023-11-21T07:03:57.850Z,100329.63
2023-11-21T07:06:29.117Z,100341.41
2023-11-21T07:09:00.675Z,100336.02
2023-11-21T07:11:31.884Z,100342.46
2023-11-21T07:14:06.609Z,100339.86
2023-11-21T07:16:39.158Z,100339.90
2023-11-21T07:19:10.280Z,100332.81
2023-11-21T07:21:43.581Z,100331.32
2023-11-21T07:24:14.761Z,100329.33
2023-11-21T07:26:46.015Z,100330.95
2023-11-21T07:29:17.369Z,100330.71
2023-11-21T07:31:48.754Z,100332.20
2023-11-21T07:34:19.936Z,100332.42
2023-11-21T07:36:51.487Z,100334.27
2023-11-21T07:39:22.708Z,100325.72
2023-11-21T07:41:54.198Z,100321.02
2023-11-21T07:44:25.195Z,100317.33
2023-11-21T07:46:58.609Z,100317.92
2023-11-21T07:49:29.803Z,100317.64
2023-11-21T07:52:01.174Z,100316.29
2023-11-21T07:54:32.424Z,100319.29
2023-11-21T07:57:05.227Z,100318.41
2023-11-21T07:59:36.344Z,100317.42
2023-11-21T08:02:08.071Z,100315.45
2023-11-21T08:04:39.354Z,100314.92
2023-11-21T08:07:11.018Z,100310.04
2023-11-21T08:09:42.081Z,100306.15
2023-11-21T08:12:15.928Z,100302.99
2023-11-21T08:14:46.870Z,100304.35
2023-11-21T08:17:18.918Z,100298.04
2023-11-21T08:19:50.966Z,100303.93
2023-11-21T08:22:24.448Z,100307.16
2023-11-21T08:24:57.845Z,100304.31
2023-11-21T08:27:29.049Z,100298.30
2023-11-21T08:29:59.949Z,100294.47
2023-11-21T08:32:31.973Z,100295.50
2023-11-21T08:35:03.330Z,100290.40
2023-11-21T08:37:38.306Z,100289.98
2023-11-21T08:40:13.518Z,100279.89
2023-11-21T08:42:46.850Z,100279.23
2023-11-21T08:45:18.911Z,100275.15
2023-11-21T08:47:50.411Z,100277.48
2023-11-21T08:50:22.157Z,100266.90
2023-11-21T08:52:53.764Z,100254.44
2023-11-21T08:55:25.657Z,100241.81
2023-11-21T08:57:59.207Z,100243.34
2023-11-21T09:00:30.707Z,100247.26
2023-11-21T09:03:04.128Z,100250.11
2023-11-21T09:05:35.065Z,100256.38
2023-11-21T09:08:06.677Z,100260.17
2023-11-21T09:10:38.516Z,100263.98
2023-11-21T09:13:10.418Z,100263.55
2023-11-21T09:15:42.051Z,100269.05
2023-11-21T09:18:14.591Z,100261.38
2023-11-21T09:20:46.620Z,100260.11
2023-11-21T09:23:17.904Z,100268.88
2023-11-21T09:25:51.137Z,100263.01
2023-11-21T09:28:22.695Z,100259.49
2023-11-21T09:30:54.074Z,100273.85
2023-11-21T09:33:26.303Z,100263.65
2023-11-21T09:35:57.357Z,100263.80
2023-11-21T09:38:29.992Z,100262.67
2023-11-21T09:41:02.892Z,100265.16
2023-11-21T09:43:37.545Z,100267.35
2023-11-21T09:46:14.283Z,100265.96
2023-11-21T09:48:47.096Z,100269.29
2023-11-21T09:51:21.094Z,100270.01
2023-11-21T09:53:54.656Z,100274.12
2023-11-21T09:56:28.030Z,100274.23
2023-11-21T09:58:59.890Z,100273.27
2023-11-21T10:01:31.789Z,100272.48
2023-11-21T10:04:03.259Z,100271.75
2023-11-21T10:06:35.412Z,100269.80
2023-11-21T10:09:12.567Z,100272.59
2023-11-21T10:11:46.169Z,100271.53
2023-11-21T10:14:23.522Z,100268.23
2023-11-21T10:16:55.972Z,100270.42
2023-11-21T10:19:28.552Z,100262.98
2023-11-21T10:22:01.717Z,100264.59
2023-11-21T10:24:41.486Z,100260.05
2023-11-21T10:27:19.945Z,100252.36
2023-11-21T10:29:53.465Z,100252.90
2023-11-21T10:32:29.818Z,100244.04
2023-11-21T10:35:05.510Z,100244.32
2023-11-21T10:37:36.777Z,100240.07
2023-11-21T10:40:13.800Z,100235.50
2023-11-21T10:42:45.726Z,100228.17
2023-11-21T10:45:17.643Z,100220.33
2023-11-21T10:47:48.979Z,100215.27
2023-11-21T10:50:22.365Z,100210.30
2023-11-21T10:52:53.505Z,100206.64
2023-11-21T10:55:26.229Z,100207.94
2023-11-21T10:58:00.449Z,100202.30
2023-11-21T11:00:33.128Z,100201.15
2023-11-21T11:03:06.000Z,100200.98
2023-11-21T11:05:37.854Z,100201.96
2023-11-21T11:08:11.166Z,100196.95
2023-11-21T11:10:43.488Z,100199.62
2023-11-21T11:13:16.140Z,100195.05
2023-11-21T11:15:50.861Z,100186.20
2023-11-21T11:18:22.889Z,100190.16
2023-11-21T11:20:56.325Z,100187.52
2023-11-21T11:23:46.233Z,100183.09
2023-11-21T11:26:30.095Z,100179.95
2023-11-21T11:29:12.931Z,100175.01
2023-11-21T11:32:06.158Z,100179.48
2023-11-21T11:34:44.768Z,100178.40
2023-11-21T11:37:17.324Z,100170.52
2023-11-21T11:39:49.982Z,100171.48
2023-11-21T11:42:24.954Z,100165.85
2023-11-21T11:44:57.618Z,100162.61
2023-11-21T11:47:34.905Z,100157.90
2023-11-21T11:50:14.761Z,100153.36
2023-11-21T11:52:47.714Z,100153.59
2023-11-21T11:55:20.326Z,100148.00
2023-11-21T12:00:38.555Z,100139.93
2023-11-21T12:03:11.759Z,100136.55
2023-11-21T12:05:46.500Z,100136.49
2023-11-21T12:08:20.224Z,100136.67
2023-11-21T12:10:52.898Z,100136.48
2023-11-21T12:13:24.686Z,100142.89
2023-11-21T12:15:56.060Z,100137.60
2023-11-21T12:18:27.986Z,100138.41
2023-11-21T12:20:59.269Z,100129.95
2023-11-21T12:23:30.699Z,100131.86
2023-11-21T12:26:01.674Z,100126.56
2023-11-21T12:28:34.031Z,100124.58
2023-11-21T12:31:11.708Z,100123.63
2023-11-21T12:33:51.634Z,100123.77
2023-11-21T12:36:23.917Z,100120.55
2023-11-21T12:38:57.943Z,100116.18
2023-11-21T12:41:29.061Z,100118.43
2023-11-21T12:44:00.788Z,100111.91
2023-11-21T12:46:34.455Z,100109.25
2023-11-21T12:49:05.782Z,100104.73
2023-11-21T12:51:36.761Z,100104.84
2023-11-21T12:54:08.360Z,100102.57
2023-11-21T12:56:42.167Z,100104.92
2023-11-21T12:59:17.738Z,100094.34
2023-11-21T13:01:52.952Z,100099.11
2023-11-21T13:04:31.640Z,100102.92
2023-11-21T13:07:14.070Z,100104.33
2023-11-21T13:09:45.215Z,100106.91
2023-11-21T13:12:19.346Z,100099.92
2023-11-21T13:14:51.397Z,100099.29
2023-11-21T13:17:25.907Z,100101.77
2023-11-21T13:19:59.173Z,100103.83
2023-11-21T13:22:31.075Z,100106.68
2023-11-21T13:25:08.595Z,100103.01
2023-11-21T13:27:39.901Z,100101.48
2023-11-21T13:30:16.524Z,100101.46
2023-11-21T13:32:50.935Z,100098.56
2023-11-21T13:35:24.644Z,100095.94
2023-11-21T13:37:57.101Z,100094.62
2023-11-21T13:40:29.109Z,100095.10
2023-11-21T13:43:00.559Z,100088.24
2023-11-21T13:45:32.338Z,100092.02
2023-11-21T13:48:06.447Z,100092.74
2023-11-21T13:50:37.878Z,100097.05
2023-11-21T13:53:19.853Z,100093.45
2023-11-21T13:55:52.461Z,100106.38
2023-11-21T13:58:27.515Z,100113.33
2023-11-21T14:00:58.710Z,100119.89
2023-11-21T14:03:42.097Z,100119.82
2023-11-21T14:06:22.001Z,100123.91
2023-11-21T14:08:54.135Z,100124.56
2023-11-21T14:11:28.350Z,100126.11
2023-11-21T14:14:01.953Z,100130.89
2023-11-21T14:16:32.864Z,100132.84
2023-11-21T14:19:15.303Z,100130.39
2023-11-21T14:21:47.711Z,100134.79
2023-11-21T14:24:19.647Z,100127.57
2023-11-21T14:26:52.250Z,100129.69
2023-11-21T14:29:25.214Z,100130.83
2023-11-21T14:31:58.715Z,100127.31
2023-11-21T14:34:30.124Z,100131.66
2023-11-21T14:37:04.032Z,100130.31
2023-11-21T14:39:41.840Z,100131.54
2023-11-21T14:42:13.178Z,100129.80
2023-11-21T14:44:44.521Z,100129.44
2023-11-21T14:47:18.120Z,100124.41
2023-11-21T14:49:55.236Z,100118.61
2023-11-21T14:52:36.103Z,100112.45
2023-11-21T14:55:26.903Z,100113.77
2023-11-21T14:57:57.765Z,100110.67
2023-11-21T15:00:42.714Z,100102.08
2023-11-21T15:03:35.464Z,100107.09
2023-11-21T15:06:21.040Z,100099.41
2023-11-21T15:09:30.359Z,100106.54
2023-11-21T15:12:11.114Z,100106.37
2023-11-21T15:14:42.955Z,100113.38
2023-11-21T15:17:20.663Z,100118.81
2023-11-21T15:19:52.154Z,100122.15
2023-11-21T15:22:23.637Z,100129.31
2023-11-21T15:24:55.280Z,100125.69
2023-11-21T15:27:28.638Z,100127.52
2023-11-21T15:30:00.106Z,100129.46
2023-11-21T15:32:31.616Z,100128.70
2023-11-21T15:35:02.931Z,100133.42
2023-11-21T15:37:34.470Z,100131.89
2023-11-21T15:40:07.253Z,100133.19
2023-11-21T15:42:39.006Z,100140.39
2023-11-21T15:45:12.021Z,100140.05
2023-11-21T15:47:45.555Z,100146.98
2023-11-21T15:50:16.980Z,100151.85
2023-11-21T15:52:57.142Z,100155.43
2023-11-21T15:55:29.885Z,100161.23
2023-11-21T15:58:05.090Z,100168.36
2023-11-21T16:00:36.616Z,100166.00
2023-11-21T16:03:07.929Z,100172.02
2023-11-21T16:05:39.162Z,100169.94
2023-11-21T16:08:10.199Z,100171.45
2023-11-21T16:10:42.071Z,100173.33
2023-11-21T16:13:14.639Z,100178.70
2023-11-21T16:15:47.292Z,100181.48
2023-11-21T16:18:20.414Z,100184.98
2023-11-21T16:20:52.237Z,100187.73
2023-11-21T16:23:23.178Z,100195.46
2023-11-21T16:25:56.241Z,100198.86
2023-11-21T16:28:27.454Z,100203.88
2023-11-21T16:30:58.752Z,100207.14
2023-11-21T16:33:30.032Z,100213.08
2023-11-21T16:36:01.223Z,100220.67
2023-11-21T16:38:33.156Z,100232.98
2023-11-21T16:41:04.840Z,100225.52
2023-11-21T16:43:36.318Z,100222.51
2023-11-21T16:46:08.282Z,100233.80
2023-11-21T16:48:39.615Z,100234.23
2023-11-21T16:51:12.782Z,100245.64
2023-11-21T16:53:44.346Z,100250.16
2023-11-21T16:56:15.588Z,100257.17
2023-11-21T16:58:46.880Z,100260.77
2023-11-21T17:01:18.813Z,100254.81
2023-11-21T17:03:50.106Z,100251.51
2023-11-21T17:06:21.147Z,100254.71
2023-11-21T17:08:52.271Z,100252.77
2023-11-21T17:11:23.292Z,100255.13
2023-11-21T17:13:54.337Z,100262.38
2023-11-21T17:16:25.494Z,100259.14
2023-11-21T17:18:56.454Z,100267.41
2023-11-21T17:21:32.799Z,100272.73
2023-11-21T17:24:10.267Z,100281.91
2023-11-21T17:26:42.809Z,100293.82
2023-11-21T17:29:15.455Z,100290.42
2023-11-21T17:31:49.306Z,100295.18
2023-11-21T17:34:21.228Z,100297.36
2023-11-21T17:36:52.311Z,100295.70
2023-11-21T17:39:24.520Z,100300.70
2023-11-21T17:41:55.777Z,100299.95
2023-11-21T17:44:26.846Z,100307.27
2023-11-21T17:46:58.442Z,100295.55
2023-11-21T17:49:30.946Z,100293.28
2023-11-21T17:52:02.771Z,100292.28
2023-11-21T17:54:34.218Z,100295.33
2023-11-21T17:57:06.211Z,100287.01
2023-11-21T17:59:38.270Z,100289.09
2023-11-21T18:02:10.370Z,100293.80
2023-11-21T18:04:41.765Z,100302.89
2023-11-21T18:07:14.012Z,100312.69
2023-11-21T18:09:45.608Z,100315.63
2023-11-21T18:12:16.677Z,100319.05
2023-11-21T18:14:50.972Z,100329.70
2023-11-21T18:17:22.222Z,100324.41
2023-11-21T18:19:56.064Z,100324.98
2023-11-21T18:22:28.853Z,100326.33
2023-11-21T18:24:59.821Z,100328.59
2023-11-21T18:27:30.914Z,100328.98
2023-11-21T18:30:02.114Z,100336.05
2023-11-21T18:32:33.543Z,100334.63
2023-11-21T18:35:05.134Z,100337.27
2023-11-21T18:37:36.333Z,100337.13
2023-11-21T18:40:10.400Z,100345.38
2023-11-21T18:42:44.817Z,100342.88
2023-11-21T18:45:17.910Z,100351.05
2023-11-21T18:47:50.614Z,100366.73
2023-11-21T18:50:22.632Z,100365.42
2023-11-21T18:52:54.130Z,100366.48
2023-11-21T18:55:25.468Z,100367.06
2023-11-21T18:57:57.070Z,100368.13
2023-11-21T19:00:28.386Z,100368.20
2023-11-21T19:02:59.968Z,100362.86
2023-11-21T19:05:30.988Z,100361.42
2023-11-21T19:08:02.789Z,100360.52
2023-11-21T19:10:34.671Z,100368.64
2023-11-21T19:13:05.882Z,100368.89
2023-11-21T19:15:37.721Z,100375.30
2023-11-21T19:18:10.343Z,100374.13
2023-11-21T19:20:41.283Z,100373.55
2023-11-21T19:23:12.397Z,100371.38
2023-11-21T19:25:43.783Z,100372.23
2023-11-21T19:28:15.560Z,100378.25
2023-11-21T19:30:47.613Z,100386.91
2023-11-21T19:33:19.540Z,100388.95
2023-11-21T19:35:52.002Z,100394.80
2023-11-21T19:38:23.203Z,100395.79
2023-11-21T19:40:54.334Z,100401.88
2023-11-21T19:43:25.546Z,100407.75
2023-11-21T19:45:57.821Z,100412.84
2023-11-21T19:48:29.423Z,100414.52
2023-11-21T19:51:00.598Z,100419.88
2023-11-21T19:53:38.101Z,100421.91
2023-11-21T19:56:11.107Z,100427.92
2023-11-21T19:58:42.888Z,100422.85
2023-11-21T20:01:14.428Z,100431.80
2023-11-21T20:03:45.736Z,100435.38
2023-11-21T20:06:17.088Z,100444.63
2023-11-21T20:08:52.392Z,100453.21
2023-11-21T20:11:24.658Z,100454.40
2023-11-21T20:13:57.209Z,100459.34
2023-11-21T20:16:28.845Z,100470.50
2023-11-21T20:18:59.882Z,100471.77
2023-11-21T20:21:32.038Z,100469.61
2023-11-21T20:24:04.070Z,100476.70
2023-11-21T20:26:35.292Z,100481.16
2023-11-21T20:29:06.250Z,100487.33
2023-11-21T20:31:37.427Z,100487.92
2023-11-21T20:34:08.992Z,100486.20
2023-11-21T20:36:41.135Z,100493.65
2023-11-21T20:39:12.694Z,100491.52
2023-11-21T20:41:45.242Z,100497.39
2023-11-21T20:44:16.396Z,100494.09
2023-11-21T20:46:51.449Z,100498.35
2023-11-21T20:49:27.925Z,100506.17
2023-11-21T20:52:04.061Z,100505.36
2023-11-21T20:54:36.131Z,100505.69
2023-11-21T20:57:10.769Z,100503.02
2023-11-21T20:59:42.551Z,100511.33
2023-11-21T21:02:14.062Z,100519.90
2023-11-21T21:04:45.499Z,100513.13
2023-11-21T21:07:17.155Z,100516.23
2023-11-21T21:09:49.011Z,100523.61
2023-11-21T21:12:20.906Z,100518.00
2023-11-21T21:14:53.059Z,100522.94
2023-11-21T21:17:24.085Z,100527.69
2023-11-21T21:19:55.107Z,100529.16
2023-11-21T21:22:26.362Z,100534.23
2023-11-21T21:24:57.696Z,100542.96
2023-11-21T21:27:28.631Z,100548.92
2023-11-21T21:29:59.719Z,100549.69
2023-11-21T21:32:30.955Z,100555.64
2023-11-21T21:35:06.640Z,100551.83
2023-11-21T21:37:38.082Z,100559.21
2023-11-21T21:40:12.178Z,100570.50
2023-11-21T21:42:43.106Z,100576.48
2023-11-21T21:45:14.652Z,100580.58
2023-11-21T21:47:45.881Z,100583.69
2023-11-21T21:50:17.435Z,100579.69
2023-11-21T21:52:49.098Z,100589.42
2023-11-21T21:55:20.839Z,100592.56
2023-11-21T21:57:51.823Z,100592.27
2023-11-21T22:00:24.826Z,100602.13
2023-11-21T22:02:57.165Z,100601.20
2023-11-21T22:05:29.214Z,100592.14
2023-11-21T22:08:05.008Z,100604.41
2023-11-21T22:10:36.081Z,100610.63
2023-11-21T22:13:07.408Z,100611.09
2023-11-21T22:15:39.013Z,100611.74
2023-11-21T22:18:11.705Z,100622.71
2023-11-21T22:20:42.836Z,100620.71
2023-11-21T22:23:13.821Z,100614.69
2023-11-21T22:25:45.508Z,100620.34
2023-11-21T22:28:16.968Z,100622.05
2023-11-21T22:30:48.257Z,100620.97
2023-11-21T22:33:19.299Z,100622.91
2023-11-21T22:35:50.181Z,100628.77
2023-11-21T22:38:21.187Z,100626.59
2023-11-21T22:40:53.676Z,100626.45
2023-11-21T22:43:25.390Z,100625.44
2023-11-21T22:45:56.463Z,100631.31
2023-11-21T22:48:28.325Z,100625.92
2023-11-21T22:50:59.665Z,100618.02
2023-11-21T22:53:30.614Z,100611.90
2023-11-21T22:56:01.694Z,100610.42
2023-11-21T22:58:32.794Z,100604.20
2023-11-21T23:01:04.270Z,100605.41
2023-11-21T23:03:35.500Z,100605.89
2023-11-21T23:06:07.378Z,100601.17
2023-11-21T23:08:38.344Z,100593.93
2023-11-21T23:11:09.822Z,100601.50
2023-11-21T23:13:40.706Z,100598.16
2023-11-21T23:16:12.166Z,100588.44
2023-11-21T23:18:47.542Z,100592.41
2023-11-21T23:21:19.711Z,100596.42
2023-11-21T23:23:50.657Z,100598.88
2023-11-21T23:26:22.213Z,100594.55
2023-11-21T23:28:54.309Z,100596.59
2023-11-21T23:31:26.842Z,100596.64
2023-11-21T23:33:58.613Z,100593.28
2023-11-21T23:36:29.756Z,100596.20
2023-11-21T23:39:01.142Z,100585.69
2023-11-21T23:41:32.447Z,100597.81
2023-11-21T23:44:04.920Z,100602.23
2023-11-21T23:46:36.245Z,100598.43
2023-11-21T23:49:08.308Z,100581.27
2023-11-21T23:51:40.213Z,100595.64
2023-11-21T23:54:11.701Z,100599.12
2023-11-21T23:56:42.696Z,100598.36
2023-11-21T23:59:14.125Z,100592.44
